createdAt,value
2022-10-22T00:00:06.302Z,64.84
2022-10-22T00:02:33.088Z,65.11
2022-10-22T00:04:59.924Z,64.93
2022-10-22T00:07:26.755Z,65.12
2022-10-22T00:09:53.839Z,65.59
2022-10-22T00:12:20.646Z,65.56
2022-10-22T00:14:48.510Z,65.79
2022-10-22T00:17:15.633Z,65.43
2022-10-22T00:19:42.391Z,65.62
2022-10-22T00:22:10.250Z,65.50
2022-10-22T00:24:38.772Z,65.38
2022-10-22T00:27:07.059Z,65.62
2022-10-22T00:29:33.800Z,66.07
2022-10-22T00:32:01.190Z,66.10
2022-10-22T00:34:27.904Z,65.74
2022-10-22T00:36:54.636Z,65.78
2022-10-22T00:39:24.416Z,65.70
2022-10-22T00:41:53.517Z,65.50
2022-10-22T00:44:58.281Z,65.48
2022-10-22T00:47:26.389Z,65.71
2022-10-22T00:49:55.309Z,65.62
2022-10-22T00:52:23.005Z,65.76
2022-10-22T00:54:51.688Z,65.70
2022-10-22T00:57:20.972Z,65.70
2022-10-22T00:59:48.789Z,65.48
2022-10-22T01:02:16.346Z,65.51
2022-10-22T01:04:43.375Z,65.97
2022-10-22T01:07:22.940Z,65.90
2022-10-22T01:10:08.103Z,65.77
2022-10-22T01:12:53.628Z,65.91
2022-10-22T01:15:38.824Z,65.73
2022-10-22T01:18:20.438Z,66.10
2022-10-22T01:20:55.612Z,66.16
2022-10-22T01:23:50.458Z,66.20
2022-10-22T01:28:50.983Z,65.98
2022-10-22T01:31:20.497Z,65.99
2022-10-22T01:33:50.037Z,66.00
2022-10-22T01:36:18.346Z,66.39
2022-10-22T01:38:47.090Z,66.28
2022-10-22T01:41:14.560Z,66.24
2022-10-22T01:43:41.308Z,66.50
2022-10-22T01:46:11.631Z,66.66
2022-10-22T01:49:17.661Z,66.57
2022-10-22T01:52:35.575Z,66.68
2022-10-22T01:55:14.514Z,66.72
2022-10-22T01:57:55.302Z,66.66
2022-10-22T02:00:22.251Z,66.89
2022-10-22T02:03:04.421Z,67.19
2022-10-22T02:05:37.266Z,67.00
2022-10-22T02:08:11.193Z,66.91
2022-10-22T02:10:41.466Z,67.12
2022-10-22T02:13:16.787Z,67.19
2022-10-22T02:15:46.447Z,66.87
2022-10-22T02:18:14.589Z,66.77
2022-10-22T02:20:42.593Z,66.92
2022-10-22T02:23:10.625Z,66.71
2022-10-22T02:25:41.951Z,66.89
2022-10-22T02:28:23.977Z,67.01
2022-10-22T02:30:57.811Z,66.77
2022-10-22T02:33:30.412Z,66.81
2022-10-22T02:35:59.140Z,66.66
2022-10-22T02:38:27.476Z,66.91
2022-10-22T02:40:54.293Z,66.95
2022-10-22T02:43:20.927Z,67.05
2022-10-22T02:45:47.602Z,67.18
2022-10-22T02:48:14.457Z,67.51
2022-10-22T02:50:41.337Z,67.32
2022-10-22T02:53:08.124Z,67.44
2022-10-22T02:55:34.796Z,67.56
2022-10-22T02:58:01.627Z,67.59
2022-10-22T03:00:28.435Z,67.23
2022-10-22T03:02:55.217Z,67.33
2022-10-22T03:05:22.007Z,67.51
2022-10-22T03:07:48.674Z,67.64
2022-10-22T03:10:15.517Z,67.90
2022-10-22T03:12:42.261Z,67.86
2022-10-22T03:15:09.301Z,67.66
2022-10-22T03:17:36.171Z,67.79
2022-10-22T03:20:02.957Z,67.76
2022-10-22T03:22:33.072Z,67.78
2022-10-22T03:25:08.152Z,68.18
2022-10-22T03:27:36.892Z,68.17
2022-10-22T03:30:04.574Z,67.94
2022-10-22T03:32:31.356Z,67.97
2022-10-22T03:37:30.440Z,68.17
2022-10-22T03:39:57.779Z,68.13
2022-10-22T03:42:24.852Z,67.97
2022-10-22T03:44:51.625Z,67.85
2022-10-22T03:47:18.476Z,67.94
2022-10-22T03:49:45.217Z,68.11
2022-10-22T03:52:14.412Z,68.02
2022-10-22T03:54:42.682Z,67.86
2022-10-22T03:57:10.332Z,67.90
2022-10-22T03:59:43.180Z,68.00
2022-10-22T04:02:11.992Z,68.01
2022-10-22T04:04:39.328Z,68.35
2022-10-22T04:07:07.311Z,68.31
2022-10-22T04:09:34.820Z,68.07
2022-10-22T04:12:01.898Z,68.44
2022-10-22T04:14:28.637Z,68.39
2022-10-22T04:16:55.595Z,68.31
2022-10-22T04:19:22.467Z,68.47
2022-10-22T04:21:49.367Z,68.38
2022-10-22T04:24:16.103Z,68.28
2022-10-22T04:26:43.194Z,68.42
2022-10-22T04:29:13.472Z,68.64
2022-10-22T04:31:42.845Z,68.67
2022-10-22T04:34:09.607Z,68.56
2022-10-22T04:36:36.408Z,68.35
2022-10-22T04:39:04.752Z,68.43
2022-10-22T04:41:37.456Z,68.37
2022-10-22T04:44:05.458Z,68.15
2022-10-22T04:46:34.663Z,68.13
2022-10-22T04:49:03.612Z,68.20
2022-10-22T04:51:30.684Z,68.38
2022-10-22T04:53:57.547Z,68.57
2022-10-22T04:56:30.023Z,68.44
2022-10-22T04:58:59.775Z,68.53
2022-10-22T05:01:32.848Z,68.33
2022-10-22T05:04:02.536Z,68.38
2022-10-22T05:06:31.820Z,68.64
2022-10-22T05:09:02.271Z,68.87
2022-10-22T05:11:37.905Z,69.00
2022-10-22T05:14:06.637Z,68.95
2022-10-22T05:16:34.395Z,69.16
2022-10-22T05:19:02.840Z,69.14
2022-10-22T05:21:30.008Z,69.23
2022-10-22T05:23:59.843Z,69.33
2022-10-22T05:26:28.353Z,69.32
2022-10-22T05:28:55.206Z,69.27
2022-10-22T05:31:21.996Z,69.12
2022-10-22T05:33:49.018Z,69.11
2022-10-22T05:36:20.259Z,69.00
2022-10-22T05:38:48.016Z,68.92
2022-10-22T05:41:18.154Z,69.04
2022-10-22T05:43:45.085Z,69.21
2022-10-22T05:46:18.620Z,69.30
2022-10-22T05:49:00.129Z,69.35
2022-10-22T05:51:28.958Z,69.40
2022-10-22T05:53:58.404Z,69.60
2022-10-22T05:56:26.354Z,69.56
2022-10-22T05:58:53.746Z,69.71
2022-10-22T06:01:28.951Z,69.38
2022-10-22T06:03:57.411Z,69.46
2022-10-22T06:06:40.752Z,69.53
2022-10-22T06:09:13.454Z,69.65
2022-10-22T06:11:41.715Z,69.23
2022-10-22T06:14:09.920Z,69.31
2022-10-22T06:16:36.663Z,69.54
2022-10-22T06:19:03.906Z,69.74
2022-10-22T06:21:32.030Z,69.66
2022-10-22T06:24:00.690Z,69.41
2022-10-22T06:26:27.911Z,69.40
2022-10-22T06:28:56.393Z,69.44
2022-10-22T06:31:24.492Z,69.40
2022-10-22T06:33:51.249Z,69.62
2022-10-22T06:36:23.408Z,69.51
2022-10-22T06:38:55.303Z,69.46
2022-10-22T06:41:25.797Z,69.51
2022-10-22T06:43:57.906Z,69.45
2022-10-22T06:46:26.192Z,69.24
2022-10-22T06:48:59.201Z,69.49
2022-10-22T06:51:26.490Z,69.74
2022-10-22T06:53:54.478Z,69.95
2022-10-22T06:56:24.249Z,70.22
2022-10-22T06:58:53.205Z,70.23
2022-10-22T07:01:22.432Z,70.24
2022-10-22T07:03:52.132Z,70.35
2022-10-22T07:06:19.499Z,70.30
2022-10-22T07:08:46.483Z,70.40
2022-10-22T07:11:17.924Z,70.55
2022-10-22T07:13:45.494Z,70.19
2022-10-22T07:16:13.045Z,70.12
2022-10-22T07:18:41.094Z,70.33
2022-10-22T07:21:09.393Z,70.52
2022-10-22T07:23:36.173Z,70.64
2022-10-22T07:26:04.293Z,70.75
2022-10-22T07:28:32.765Z,71.34
2022-10-22T07:31:00.908Z,71.22
2022-10-22T07:33:27.747Z,71.10
2022-10-22T07:36:01.305Z,71.50
2022-10-22T07:38:29.315Z,71.57
2022-10-22T07:40:56.350Z,71.65
2022-10-22T07:43:23.307Z,71.29
2022-10-22T07:45:50.307Z,71.34
2022-10-22T07:48:17.467Z,71.28
2022-10-22T07:50:50.286Z,71.69
2022-10-22T07:53:17.566Z,71.57
2022-10-22T07:55:44.264Z,71.77
2022-10-22T07:58:10.968Z,71.52
2022-10-22T08:00:37.902Z,71.68
2022-10-22T08:03:04.775Z,71.77
2022-10-22T08:05:31.570Z,71.86
2022-10-22T08:07:58.334Z,71.89
2022-10-22T08:10:25.099Z,71.64
2022-10-22T08:12:51.829Z,71.56
2022-10-22T08:15:18.664Z,71.85
2022-10-22T08:17:45.393Z,71.95
2022-10-22T08:20:12.267Z,72.01
2022-10-22T08:22:38.995Z,72.05
2022-10-22T08:25:06.391Z,72.21
2022-10-22T08:27:33.100Z,72.24
2022-10-22T08:29:59.877Z,72.03
2022-10-22T08:34:54.346Z,71.96
2022-10-22T08:37:21.128Z,71.55
2022-10-22T08:39:47.990Z,71.71
2022-10-22T08:42:34.399Z,71.89
2022-10-22T08:45:23.138Z,71.84
2022-10-22T08:48:18.091Z,72.15
2022-10-22T08:50:51.804Z,71.81
2022-10-22T08:53:40.131Z,71.83
2022-10-22T08:56:07.046Z,71.82
2022-10-22T08:59:04.308Z,71.87
2022-10-22T09:01:41.850Z,71.77
2022-10-22T09:04:19.738Z,71.74
2022-10-22T09:06:49.587Z,71.72
2022-10-22T09:13:18.112Z,72.21
2022-10-22T09:15:49.556Z,72.23
2022-10-22T09:18:31.159Z,72.10
2022-10-22T09:21:21.157Z,72.17
2022-10-22T09:24:12.290Z,72.33
2022-10-22T09:26:40.891Z,71.91
2022-10-22T09:29:17.635Z,71.55
2022-10-22T09:31:44.450Z,71.77
2022-10-22T09:34:15.129Z,71.85
2022-10-22T09:36:42.213Z,71.84
2022-10-22T09:39:32.033Z,71.62
2022-10-22T09:41:59.234Z,71.38
2022-10-22T09:44:25.975Z,70.99
2022-10-22T09:46:52.772Z,70.74
2022-10-22T09:49:23.450Z,70.48
2022-10-22T09:51:56.517Z,70.35
2022-10-22T09:54:46.553Z,69.73
2022-10-22T09:57:21.672Z,69.37
2022-10-22T09:59:54.214Z,69.32
2022-10-22T10:02:39.230Z,68.56
2022-10-22T10:05:07.292Z,68.63
2022-10-22T10:07:36.749Z,68.56
2022-10-22T10:10:19.455Z,67.04
2022-10-22T10:12:58.879Z,66.27
2022-10-22T10:15:42.887Z,65.32
2022-10-22T10:18:21.863Z,65.28
2022-10-22T10:20:58.603Z,65.31
2022-10-22T10:23:42.044Z,64.84
2022-10-22T10:26:24.248Z,64.98
2022-10-22T10:29:12.936Z,65.03
2022-10-22T10:31:53.743Z,64.72
2022-10-22T10:34:23.446Z,64.27
2022-10-22T10:36:59.278Z,64.44
2022-10-22T10:39:42.781Z,64.31
2022-10-22T10:42:15.650Z,63.90
2022-10-22T10:45:07.370Z,63.86
2022-10-22T10:47:42.305Z,63.10
2022-10-22T10:50:33.770Z,63.22
2022-10-22T10:53:03.562Z,63.17
2022-10-22T10:55:36.179Z,62.97
2022-10-22T10:58:54.555Z,62.42
2022-10-22T11:01:27.792Z,62.80
2022-10-22T11:04:21.539Z,62.96
2022-10-22T11:06:51.121Z,62.66
2022-10-22T11:09:27.214Z,62.36
2022-10-22T11:12:02.491Z,62.01
2022-10-22T11:15:00.359Z,61.27
2022-10-22T11:17:33.599Z,60.04
2022-10-22T11:20:18.757Z,59.85
2022-10-22T11:23:16.762Z,59.72
2022-10-22T11:25:46.870Z,59.40
2022-10-22T11:30:57.452Z,58.00
2022-10-22T11:33:30.380Z,58.13
2022-10-22T11:35:59.880Z,57.33
2022-10-22T11:38:28.460Z,57.61
2022-10-22T11:41:16.205Z,57.22
2022-10-22T11:44:09.878Z,56.70
2022-10-22T11:46:55.090Z,56.70
2022-10-22T11:49:25.751Z,57.02
2022-10-22T11:52:05.339Z,57.00
2022-10-22T11:54:35.099Z,56.40
2022-10-22T11:57:17.128Z,56.41
2022-10-22T11:59:46.866Z,56.21
2022-10-22T12:02:28.915Z,55.87
2022-10-22T12:05:16.116Z,54.68
2022-10-22T12:07:55.136Z,55.14
2022-10-22T12:10:27.295Z,55.15
2022-10-22T12:13:02.424Z,54.20
2022-10-22T12:15:29.711Z,53.81
2022-10-22T12:18:07.062Z,54.47
2022-10-22T12:20:33.846Z,52.78
2022-10-22T12:23:00.911Z,53.10
2022-10-22T12:25:35.693Z,54.29
2022-10-22T12:28:02.880Z,53.63
2022-10-22T12:30:37.116Z,53.23
2022-10-22T12:33:07.267Z,52.79
2022-10-22T12:35:42.574Z,53.66
2022-10-22T12:38:15.700Z,53.94
2022-10-22T12:40:46.018Z,53.68
2022-10-22T12:43:24.094Z,53.71
2022-10-22T12:45:51.467Z,53.44
2022-10-22T12:48:20.290Z,52.75
2022-10-22T12:50:53.345Z,53.19
2022-10-22T12:53:23.255Z,53.29
2022-10-22T12:55:55.687Z,53.78
2022-10-22T12:58:28.619Z,53.52
2022-10-22T13:00:58.648Z,53.22
2022-10-22T13:03:29.309Z,53.17
2022-10-22T13:09:00.659Z,52.25
2022-10-22T13:11:41.284Z,52.19
2022-10-22T13:14:21.486Z,52.80
2022-10-22T13:17:10.083Z,52.51
2022-10-22T13:20:05.630Z,51.98
2022-10-22T13:22:40.892Z,52.22
2022-10-22T13:25:13.778Z,51.61
2022-10-22T13:27:45.606Z,51.99
2022-10-22T13:30:21.156Z,52.81
2022-10-22T13:32:57.070Z,52.68
2022-10-22T13:35:27.765Z,52.68
2022-10-22T13:37:54.560Z,52.57
2022-10-22T13:40:21.895Z,53.08
2022-10-22T13:42:48.833Z,53.48
2022-10-22T13:45:16.509Z,53.87
2022-10-22T13:47:48.959Z,54.09
2022-10-22T13:50:18.802Z,54.35
2022-10-22T13:52:55.687Z,54.67
2022-10-22T13:55:25.721Z,55.72
2022-10-22T13:58:04.209Z,55.55
2022-10-22T14:00:31.493Z,55.39
2022-10-22T14:03:00.050Z,54.85
2022-10-22T14:05:27.978Z,55.85
2022-10-22T14:07:54.958Z,55.51
2022-10-22T14:10:24.639Z,55.36
2022-10-22T14:12:53.807Z,55.70
2022-10-22T14:15:27.950Z,55.60
2022-10-22T14:18:00.224Z,55.61
2022-10-22T14:20:29.956Z,55.43
2022-10-22T14:22:57.143Z,55.06
2022-10-22T14:25:26.068Z,55.18
2022-10-22T14:27:52.922Z,55.57
2022-10-22T16:10:35.122Z,61.55
2022-10-22T16:13:01.804Z,61.32
2022-10-22T16:15:28.510Z,61.40
2022-10-22T16:17:55.452Z,61.56
2022-10-22T16:20:22.151Z,61.82
2022-10-22T16:22:50.627Z,62.11
2022-10-22T16:25:18.143Z,62.09
2022-10-22T16:27:45.217Z,62.00
2022-10-22T16:30:12.596Z,62.34
2022-10-22T16:32:39.527Z,62.40
2022-10-22T16:35:08.619Z,62.08
2022-10-22T16:37:35.609Z,62.32
2022-10-22T16:40:05.867Z,62.21
2022-10-22T16:42:35.121Z,62.35
2022-10-22T16:45:02.326Z,62.36
2022-10-22T16:47:30.277Z,62.38
2022-10-22T16:49:59.735Z,62.43
2022-10-22T16:52:26.938Z,62.07
2022-10-22T16:54:53.755Z,62.19
2022-10-22T16:57:20.536Z,62.26
2022-10-22T16:59:49.859Z,62.29
2022-10-22T17:02:16.815Z,62.13
2022-10-22T17:04:43.765Z,62.18
2022-10-22T17:07:11.308Z,61.92
2022-10-22T17:09:38.518Z,61.67
2022-10-22T17:12:05.535Z,61.71
2022-10-22T17:14:33.068Z,61.50
2022-10-22T17:17:00.165Z,61.30
2022-10-22T17:19:27.426Z,61.45
2022-10-22T17:21:54.855Z,61.79
2022-10-22T17:24:22.116Z,61.86
2022-10-22T17:26:50.503Z,61.68
2022-10-22T17:29:20.882Z,61.60
2022-10-22T17:31:48.699Z,61.85
2022-10-22T17:34:21.886Z,61.79
2022-10-22T17:36:48.788Z,61.75
2022-10-22T17:46:50.360Z,62.57
2022-10-22T20:11:47.087Z,62.95
2022-10-22T20:14:14.416Z,62.80
2022-10-22T20:16:42.274Z,62.74
2022-10-22T20:19:09.237Z,62.71
2022-10-22T20:21:36.015Z,62.95
2022-10-22T20:24:02.761Z,62.92
2022-10-22T20:26:29.747Z,62.77
2022-10-22T20:28:58.130Z,62.82
2022-10-22T20:31:27.966Z,62.82
2022-10-22T20:33:58.234Z,62.84
2022-10-22T20:36:26.784Z,62.96
2022-10-22T20:39:00.410Z,63.06
2022-10-22T20:45:08.980Z,62.98
2022-10-22T20:47:50.812Z,63.10
2022-10-22T21:09:14.533Z,63.26
2022-10-22T21:11:42.780Z,63.26
2022-10-22T21:14:10.899Z,63.39
2022-10-22T21:16:41.916Z,63.48
2022-10-22T21:19:08.917Z,63.66
2022-10-22T21:21:35.671Z,63.58
2022-10-22T21:24:02.386Z,63.39
2022-10-22T21:26:29.066Z,63.45
2022-10-22T21:28:55.760Z,63.32
2022-10-22T21:31:24.420Z,63.55
2022-10-22T21:33:51.456Z,63.49
2022-10-22T21:36:22.720Z,63.38
2022-10-22T21:38:51.778Z,63.32
2022-10-22T21:41:20.207Z,63.60
2022-10-22T21:43:46.975Z,63.52
2022-10-22T21:46:17.215Z,63.76
2022-10-22T21:48:44.713Z,63.56
2022-10-22T21:51:15.928Z,63.76
2022-10-22T21:53:43.341Z,63.65
2022-10-22T21:56:19.101Z,63.99
2022-10-22T21:58:45.891Z,64.25
2022-10-22T22:01:14.723Z,63.82
2022-10-22T22:03:48.351Z,64.15
2022-10-22T22:06:20.405Z,64.30
2022-10-22T22:08:49.358Z,63.72
2022-10-22T22:11:18.839Z,63.76
2022-10-22T22:13:45.762Z,63.66
2022-10-22T22:16:15.861Z,63.85
2022-10-22T22:18:42.909Z,64.17
2022-10-22T22:21:12.858Z,64.16
2022-10-22T22:23:42.132Z,63.90
2022-10-22T22:26:10.153Z,64.19
2022-10-22T22:28:37.995Z,63.90
2022-10-22T22:31:17.146Z,63.61
2022-10-22T22:33:44.303Z,64.19
2022-10-22T22:36:11.733Z,64.15
2022-10-22T22:38:39.380Z,63.99
2022-10-22T22:41:06.993Z,63.87
2022-10-22T22:43:34.657Z,64.14
2022-10-22T22:46:04.153Z,64.23
2022-10-22T22:48:30.922Z,64.07
2022-10-22T22:51:00.143Z,64.44
2022-10-22T22:53:28.413Z,64.51
2022-10-22T22:56:14.182Z,64.32
2022-10-22T22:58:42.455Z,64.65
2022-10-22T23:01:17.501Z,64.37
2022-10-22T23:03:46.563Z,64.97
2022-10-22T23:06:14.285Z,64.97
2022-10-22T23:08:42.652Z,64.70
2022-10-22T23:11:13.174Z,64.65
2022-10-22T23:13:42.110Z,64.78
2022-10-22T23:16:14.659Z,64.74
2022-10-22T23:18:41.510Z,64.21
2022-10-22T23:21:14.072Z,64.42
2022-10-22T23:23:46.187Z,64.19
2022-10-22T23:26:14.642Z,64.38
2022-10-22T23:28:41.599Z,64.53
2022-10-22T23:31:10.917Z,64.55
2022-10-22T23:33:37.644Z,64.50
2022-10-22T23:36:07.208Z,64.51
2022-10-22T23:38:35.218Z,64.68
2022-10-22T23:41:02.114Z,64.91
2022-10-22T23:43:29.750Z,65.03
2022-10-22T23:45:57.317Z,64.90
2022-10-22T23:48:24.349Z,64.99
2022-10-22T23:50:51.025Z,65.15
2022-10-22T23:53:17.827Z,65.34
2022-10-22T23:55:45.123Z,65.58
2022-10-22T23:58:12.294Z,65.27
